createdAt,value
2018-05-15T00:02:51.064Z,2.21
2018-05-15T00:08:51.785Z,2.11
2018-05-15T00:12:52.543Z,1.91
2018-05-15T00:14:53.271Z,2.03
2018-05-15T00:18:54.102Z,1.93
2018-05-15T00:24:55.281Z,2.31
2018-05-15T00:28:56.074Z,2.27
2018-05-15T00:34:56.920Z,2.6
2018-05-15T00:38:57.722Z,2.62
2018-05-15T00:40:58.426Z,2.59
2018-05-15T00:44:59.071Z,2.39
2018-05-15T00:50:59.843Z,2.24
2018-05-15T00:55:00.656Z,2.46
2018-05-15T01:01:01.356Z,2.62
2018-05-15T01:07:02.105Z,2.75
2018-05-15T01:11:03.193Z,2.81
2018-05-15T01:17:03.838Z,2.65
2018-05-15T01:21:04.690Z,2.47
2018-05-15T01:23:05.442Z,2.77
2018-05-15T01:27:06.193Z,2.66
2018-05-15T01:33:07.011Z,2.94
2018-05-15T01:37:07.819Z,3.01
2018-05-15T01:43:08.716Z,2.98
2018-05-15T01:47:09.418Z,2.81
2018-05-15T01:49:10.241Z,3.17
2018-05-15T01:53:10.967Z,2.89
2018-05-15T01:59:11.656Z,2.75
2018-05-15T02:03:12.446Z,2.55
2018-05-15T02:09:13.143Z,2.72
2018-05-15T02:15:14.307Z,2.94
2018-05-15T02:19:15.463Z,2.26
2018-05-15T02:25:16.328Z,3.14
2018-05-15T02:29:17.158Z,2.78
2018-05-15T02:31:17.883Z,2.41
2018-05-15T02:35:18.697Z,2.4
2018-05-15T02:41:19.450Z,2.46
2018-05-15T02:45:20.361Z,2.62
2018-05-15T02:51:21.092Z,2.4
2018-05-15T02:55:21.873Z,2.35
2018-05-15T02:57:22.610Z,3.02
2018-05-15T03:01:23.353Z,3.03
2018-05-15T03:07:24.095Z,3.21
2018-05-15T03:11:25.068Z,3.42
2018-05-15T03:17:25.770Z,2.98
2018-05-15T03:23:26.536Z,3.78
2018-05-15T03:27:27.333Z,3.2
2018-05-15T03:33:28.267Z,3.67
2018-05-15T03:37:29.046Z,3.68
2018-05-15T03:39:29.757Z,4.48
2018-05-15T03:43:30.571Z,4.66
2018-05-15T03:49:31.317Z,5.05
2018-05-15T03:53:32.011Z,4.82
2018-05-15T03:59:32.817Z,5.31
2018-05-15T04:03:33.623Z,5.14
2018-05-15T04:05:34.411Z,5.29
2018-05-15T04:09:35.134Z,5.45
2018-05-15T04:15:35.991Z,6.6
2018-05-15T04:19:37.059Z,5.84
2018-05-15T04:25:37.805Z,6.55
2018-05-15T04:31:38.574Z,5.95
2018-05-15T04:35:39.312Z,5.9
2018-05-15T04:41:40.137Z,6.94
2018-05-15T04:45:41.006Z,6.83
2018-05-15T04:47:41.668Z,6.73
2018-05-15T04:51:42.437Z,7.05
2018-05-15T04:57:43.952Z,6.16
2018-05-15T05:01:44.614Z,6.61
2018-05-15T05:07:45.416Z,5.87
2018-05-15T05:13:46.148Z,6
2018-05-15T05:17:46.971Z,5.9
2018-05-15T05:23:47.785Z,5.96
2018-05-15T05:27:48.512Z,5.56
2018-05-15T05:33:49.286Z,5.97
2018-05-15T05:39:50.082Z,6.46
2018-05-15T05:43:50.804Z,6.23
2018-05-15T05:49:51.565Z,6.41
2018-05-15T05:53:52.375Z,6.19
2018-05-15T05:55:53.098Z,5.01
2018-05-15T05:59:53.956Z,5.21
2018-05-15T06:05:54.676Z,6.35
2018-05-15T06:09:55.383Z,6.06
2018-05-15T06:15:56.274Z,5.14
2018-05-15T06:21:57.089Z,5.14
2018-05-15T06:25:57.811Z,5.18
2018-05-15T06:31:58.570Z,4.9
2018-05-15T06:35:59.418Z,4.63
2018-05-15T06:38:00.118Z,6.64
2018-05-15T06:42:00.890Z,5.82
2018-05-15T06:48:01.684Z,6.64
2018-05-15T06:52:03.475Z,6.37
2018-05-15T06:58:03.116Z,5.88
2018-05-15T07:02:03.924Z,5.54
2018-05-15T07:04:04.627Z,5.87
2018-05-15T07:08:05.485Z,5.36
2018-05-15T07:14:06.275Z,4.63
2018-05-15T07:18:06.958Z,3.91
2018-05-15T07:24:07.746Z,5.11
2018-05-15T07:30:08.753Z,5.38
2018-05-15T07:34:09.531Z,4.6
2018-05-15T07:40:10.329Z,4.95
2018-05-15T07:44:11.013Z,5.06
2018-05-15T07:46:11.797Z,5.72
2018-05-15T07:50:12.529Z,3.9
2018-05-15T07:56:13.248Z,3.36
2018-05-15T08:00:14.459Z,3.16
2018-05-15T08:06:15.301Z,2.8
2018-05-15T08:10:16.019Z,2.39
2018-05-15T08:12:16.846Z,2.85
2018-05-15T08:16:17.626Z,2.41
2018-05-15T08:22:18.362Z,2.07
2018-05-15T08:26:19.152Z,2.25
2018-05-15T08:32:19.827Z,2.74
2018-05-15T08:38:20.701Z,2.48
2018-05-15T08:42:21.465Z,2.65
2018-05-15T08:48:22.179Z,2.58
2018-05-15T08:52:22.991Z,2.26
2018-05-15T08:54:23.789Z,2.24
2018-05-15T08:58:24.577Z,2.85
2018-05-15T09:04:25.366Z,3.71
2018-05-15T09:08:26.125Z,2.91
2018-05-15T09:14:26.771Z,3.19
2018-05-15T09:18:27.485Z,2.68
2018-05-15T09:20:28.193Z,1.53
2018-05-15T09:24:29.021Z,1.85
2018-05-15T09:30:30.257Z,2.09
2018-05-15T09:34:30.988Z,2.36
2018-05-15T09:40:31.826Z,1.82
2018-05-15T09:46:32.642Z,2.39
2018-05-15T09:50:33.326Z,1.68
2018-05-15T09:56:34.085Z,2.19
2018-05-15T10:00:34.930Z,2.37
2018-05-15T10:02:35.507Z,2.03
2018-05-15T10:06:36.346Z,1.7
2018-05-15T10:12:37.232Z,1.92
2018-05-15T10:16:38.006Z,1.68
2018-05-15T10:28:41.095Z,2.16
2018-05-15T10:28:41.219Z,2.18
2018-05-15T10:32:42.155Z,2.02
2018-05-15T10:38:43.078Z,1.1
2018-05-15T10:42:43.816Z,1.38
2018-05-15T10:48:44.656Z,1.54
2018-05-15T10:54:45.690Z,1.54
2018-05-15T10:58:46.471Z,1.2
2018-05-15T11:04:47.498Z,1.47
2018-05-15T11:08:49.104Z,1.54
2018-05-15T11:10:49.988Z,1.35
2018-05-15T11:14:50.517Z,0.99
2018-05-15T11:20:51.438Z,1.79
2018-05-15T11:24:52.201Z,1.54
2018-05-15T11:30:53.048Z,1.41
2018-05-15T11:36:53.785Z,2
2018-05-15T11:40:54.663Z,1.83
2018-05-15T11:46:55.350Z,1.8
2018-05-15T11:50:56.609Z,1.94
2018-05-15T11:56:56.914Z,1.26
2018-05-15T12:02:57.672Z,1.68
2018-05-15T12:06:58.453Z,1.03
2018-05-15T12:12:59.232Z,0.98
2018-05-15T12:17:00.130Z,1.1
2018-05-15T12:19:00.819Z,1.35
2018-05-15T12:23:01.626Z,1.21
2018-05-15T12:29:02.372Z,1.32
2018-05-15T12:33:03.100Z,1.28
2018-05-15T12:39:03.882Z,1.14
2018-05-15T12:45:04.702Z,2.03
2018-05-15T12:49:05.353Z,1.92
2018-05-15T12:55:06.188Z,1.74
2018-05-15T12:59:06.982Z,1.25
2018-05-15T13:01:07.848Z,1.24
2018-05-15T13:05:08.800Z,1.55
2018-05-15T13:11:09.648Z,1.22
2018-05-15T13:15:10.947Z,0.81
2018-05-15T13:21:11.817Z,1.47
2018-05-15T13:25:12.583Z,1
2018-05-15T13:27:13.294Z,1.21
2018-05-15T13:31:14.017Z,0.83
2018-05-15T13:37:14.695Z,0.85
2018-05-15T13:41:15.547Z,0.76
2018-05-15T13:47:16.501Z,0.69
2018-05-15T13:53:17.403Z,0.81
2018-05-15T13:57:18.724Z,0.74
2018-05-15T14:03:19.452Z,1.2
2018-05-15T14:07:20.757Z,1.01
2018-05-15T14:09:21.534Z,1.04
2018-05-15T14:13:22.263Z,0.83
2018-05-15T14:19:22.975Z,1
2018-05-15T14:23:23.775Z,1.31
2018-05-15T14:29:24.661Z,0.82
2018-05-15T14:35:27.764Z,0.85
2018-05-15T14:39:28.824Z,0.82
2018-05-15T14:45:31.235Z,1.01
2018-05-15T14:49:32.456Z,0.85
2018-05-15T14:55:33.389Z,0.81
2018-05-15T15:01:34.407Z,0.8
2018-05-15T15:05:35.393Z,0.82
2018-05-15T15:11:36.285Z,1.68
2018-05-15T15:15:37.020Z,1.08
2018-05-15T15:17:37.832Z,1.34
2018-05-15T15:21:38.796Z,1.17
2018-05-15T15:27:39.405Z,2.12
2018-05-15T15:31:40.241Z,1.66
2018-05-15T15:37:42.041Z,0.94
2018-05-15T15:41:42.852Z,0.98
2018-05-15T15:43:43.885Z,0.9
2018-05-15T15:47:45.021Z,0.92
2018-05-15T15:53:45.985Z,0.96
2018-05-15T15:57:46.967Z,0.8
2018-05-15T16:03:47.797Z,0.92
2018-05-15T16:09:48.717Z,1.52
2018-05-15T16:13:49.497Z,1.42
2018-05-15T16:19:50.415Z,1.58
2018-05-15T16:23:51.179Z,1.32
2018-05-15T16:25:51.919Z,1.97
2018-05-15T16:29:52.958Z,2.25
2018-05-15T16:35:53.621Z,3.14
2018-05-15T16:39:54.361Z,3.15
2018-05-15T16:45:55.217Z,2.06
2018-05-15T16:49:55.990Z,2.57
2018-05-15T16:51:56.814Z,1.52
2018-05-15T16:55:57.591Z,1.42
2018-05-15T17:01:58.443Z,1.9
2018-05-15T17:05:59.215Z,1.67
2018-05-15T17:12:00.034Z,2.18
2018-05-15T17:18:00.849Z,2.34
2018-05-15T17:22:01.627Z,1.89
2018-05-15T17:28:02.339Z,1.43
2018-05-15T17:32:03.249Z,1.58
2018-05-15T17:34:04.042Z,1.1
2018-05-15T17:38:04.974Z,0.99
2018-05-15T17:44:05.638Z,1.91
2018-05-15T17:48:06.517Z,1.78
2018-05-15T17:54:07.393Z,2.18
2018-05-15T18:00:08.550Z,2
2018-05-15T18:04:08.950Z,1.7
2018-05-15T18:10:09.825Z,3.21
2018-05-15T18:14:10.521Z,2.39
2018-05-15T18:20:11.353Z,1.52
2018-05-15T18:26:12.186Z,1.63
2018-05-15T18:30:13.581Z,1.29
2018-05-15T18:36:14.223Z,2.28
2018-05-15T18:40:15.060Z,2.7
2018-05-15T18:42:15.893Z,4.26
2018-05-15T18:46:16.679Z,2.88
2018-05-15T18:52:17.854Z,2.16
2018-05-15T18:56:18.697Z,2.06
2018-05-15T19:02:19.756Z,4.24
2018-05-15T19:08:20.447Z,2.73
2018-05-15T19:12:21.218Z,2.16
2018-05-15T19:18:22.017Z,2.54
2018-05-15T19:28:28.681Z,4.32
2018-05-15T19:28:28.810Z,2.63
2018-05-15T19:34:29.565Z,3.02
2018-05-15T19:38:30.341Z,2.45
2018-05-15T19:44:31.209Z,2.94
2018-05-15T19:48:32.705Z,2.77
2018-05-15T19:50:33.415Z,2.79
2018-05-15T19:54:34.165Z,2.41
2018-05-15T20:00:34.905Z,2.68
2018-05-15T20:04:35.781Z,2.66
2018-05-15T20:10:37.638Z,2.91
2018-05-15T20:16:38.587Z,2.96
2018-05-15T20:20:39.407Z,3.29
2018-05-15T20:26:40.185Z,3.18
2018-05-15T20:30:40.905Z,3.09
2018-05-15T20:36:41.959Z,3.18
2018-05-15T20:42:43.180Z,4.17
2018-05-15T20:46:44.389Z,4.08
2018-05-15T20:52:45.282Z,3.33
2018-05-15T20:56:45.971Z,3.35
2018-05-15T20:58:46.737Z,3.46
2018-05-15T21:02:47.570Z,3.83
2018-05-15T21:08:48.264Z,4.11
2018-05-15T21:12:48.979Z,3.73
2018-05-15T21:18:49.913Z,5.22
2018-05-15T21:24:50.744Z,4.04
2018-05-15T21:28:51.652Z,4
2018-05-15T21:34:52.490Z,3.01
2018-05-15T21:38:53.261Z,2.54
2018-05-15T21:40:53.958Z,3.05
2018-05-15T21:44:54.897Z,3.06
2018-05-15T21:50:55.788Z,3.18
2018-05-15T21:54:56.608Z,3.09
2018-05-15T22:00:57.492Z,2.53
2018-05-15T22:04:58.245Z,2.34
2018-05-15T22:06:59.218Z,3.09
2018-05-15T22:10:59.951Z,2.96
2018-05-15T22:17:01.240Z,2.77
2018-05-15T22:21:01.979Z,2.3
2018-05-15T22:27:02.824Z,2.58
2018-05-15T22:33:03.592Z,2.29
2018-05-15T22:37:04.318Z,2.27
2018-05-15T22:43:05.196Z,2.4
2018-05-15T22:47:06.002Z,2.67
2018-05-15T22:49:06.713Z,2.52
2018-05-15T22:53:07.409Z,2.49
2018-05-15T22:59:08.172Z,2.19
2018-05-15T23:03:08.938Z,1.85
2018-05-15T23:09:09.631Z,2.32
